createdAt,value
2022-11-19T00:00:02.064Z,7.75
2022-11-19T00:05:01.363Z,7.76
2022-11-19T00:10:02.212Z,7.83
2022-11-19T00:15:02.184Z,7.79
2022-11-19T00:20:01.826Z,7.75
2022-11-19T00:25:01.572Z,7.82
2022-11-19T00:30:01.647Z,7.82
2022-11-19T00:35:01.898Z,7.87
2022-11-19T00:40:01.961Z,7.82
2022-11-19T00:45:02.038Z,7.85
2022-11-19T00:50:01.998Z,7.88
2022-11-19T00:55:01.878Z,7.86
2022-11-19T01:00:02.005Z,7.88
2022-11-19T01:05:01.681Z,7.88
2022-11-19T01:10:01.530Z,7.83
2022-11-19T01:15:02.008Z,7.87
2022-11-19T01:20:01.993Z,7.88
2022-11-19T01:25:02.195Z,7.9
2022-11-19T01:30:02.198Z,7.89
2022-11-19T01:35:01.517Z,7.9
2022-11-19T01:40:01.669Z,7.91
2022-11-19T01:45:01.695Z,7.91
2022-11-19T01:50:01.869Z,7.91
2022-11-19T01:55:02.040Z,7.92
2022-11-19T02:00:02.177Z,7.9
2022-11-19T02:05:03.263Z,7.92
2022-11-19T02:10:01.306Z,7.94
2022-11-19T02:15:02.038Z,7.94
2022-11-19T02:20:02.152Z,7.96
2022-11-19T02:25:01.426Z,7.97
2022-11-19T02:30:01.605Z,7.97
2022-11-19T02:35:01.669Z,7.96
2022-11-19T02:40:01.999Z,7.99
2022-11-19T02:45:02.044Z,7.98
2022-11-19T02:50:01.752Z,7.96
2022-11-19T02:55:01.782Z,7.91
2022-11-19T03:00:01.748Z,7.86
2022-11-19T03:05:02.310Z,7.88
2022-11-19T03:10:02.168Z,7.91
2022-11-19T03:15:01.227Z,7.91
2022-11-19T03:20:01.460Z,7.91
2022-11-19T03:25:01.578Z,7.94
2022-11-19T03:30:02.105Z,7.9
2022-11-19T03:35:01.804Z,7.9
2022-11-19T03:40:01.859Z,7.92
2022-11-19T03:45:01.746Z,7.86
2022-11-19T03:50:01.887Z,7.87
2022-11-19T03:55:01.935Z,7.84
2022-11-19T04:00:01.863Z,7.81
2022-11-19T04:05:01.781Z,7.81
2022-11-19T04:10:02.092Z,7.84
2022-11-19T04:15:02.193Z,7.78
2022-11-19T04:20:02.047Z,7.15
2022-11-19T04:25:01.882Z,6.57
2022-11-19T04:30:01.817Z,6.39
2022-11-19T04:35:01.715Z,6.09
2022-11-19T04:40:01.986Z,5.79
2022-11-19T04:45:01.701Z,5.61
2022-11-19T04:50:01.656Z,5.43
2022-11-19T04:55:01.553Z,5.33
2022-11-19T05:00:01.605Z,5.32
2022-11-19T05:05:02.147Z,5.18
2022-11-19T05:10:01.667Z,5.11
2022-11-19T05:15:01.600Z,5.03
2022-11-19T05:20:01.733Z,4.93
2022-11-19T05:25:01.746Z,4.93
2022-11-19T05:30:01.712Z,5.03
2022-11-19T05:35:01.539Z,5.02
2022-11-19T05:40:01.684Z,4.76
2022-11-19T05:45:01.371Z,4.64
2022-11-19T05:50:01.409Z,4.53
2022-11-19T05:55:01.492Z,4.42
2022-11-19T06:00:01.507Z,4.35
2022-11-19T06:05:01.620Z,4.24
2022-11-19T06:10:01.735Z,4.32
2022-11-19T06:15:01.726Z,4.2
2022-11-19T06:20:02.144Z,4.23
2022-11-19T06:25:01.719Z,4.19
2022-11-19T06:30:02.013Z,4.09
2022-11-19T06:35:02.024Z,4.09
2022-11-19T06:40:02.185Z,4.05
2022-11-19T06:45:01.278Z,4.09
2022-11-19T06:50:01.375Z,4.04
2022-11-19T06:55:01.372Z,4
2022-11-19T07:00:01.607Z,4.09
2022-11-19T07:05:02.080Z,3.98
2022-11-19T07:10:02.128Z,3.94
2022-11-19T07:15:04.543Z,3.97
2022-11-19T07:20:01.386Z,3.86
2022-11-19T07:25:01.619Z,3.91
2022-11-19T07:30:01.492Z,3.79
2022-11-19T07:35:01.620Z,3.69
2022-11-19T07:40:01.723Z,3.68
2022-11-19T07:45:01.875Z,3.6
2022-11-19T07:50:01.685Z,3.64
2022-11-19T07:55:01.396Z,3.64
2022-11-19T08:00:01.536Z,3.47
2022-11-19T08:05:01.690Z,3.5
2022-11-19T08:10:01.887Z,3.3
2022-11-19T08:15:01.990Z,3.43
2022-11-19T08:20:02.067Z,3.23
2022-11-19T08:25:01.286Z,3.26
2022-11-19T08:30:01.443Z,3.33
2022-11-19T08:35:01.530Z,3.2
2022-11-19T08:40:01.686Z,3.23
2022-11-19T08:45:01.448Z,3.14
2022-11-19T08:50:01.701Z,3.14
2022-11-19T08:55:01.593Z,3.26
2022-11-19T09:00:06.191Z,3.17
2022-11-19T09:05:02.283Z,3.14
2022-11-19T09:10:01.787Z,3.28
2022-11-19T09:15:01.758Z,3.14
2022-11-19T09:20:01.849Z,3.18
2022-11-19T09:25:01.886Z,3.2
2022-11-19T09:30:02.066Z,3.34
2022-11-19T09:35:01.906Z,3.29
2022-11-19T09:40:01.875Z,3.38
2022-11-19T09:45:01.967Z,3.5
2022-11-19T09:50:02.206Z,3.19
2022-11-19T09:55:02.275Z,3.21
2022-11-19T10:00:01.826Z,3.29
2022-11-19T10:05:01.335Z,3.06
2022-11-19T10:10:01.827Z,3.11
2022-11-19T10:15:02.179Z,3.3
2022-11-19T10:20:02.261Z,3.12
2022-11-19T10:25:02.133Z,3.26
2022-11-19T10:30:02.266Z,3.45
2022-11-19T10:35:02.242Z,3.36
2022-11-19T10:40:01.330Z,3.4
2022-11-19T10:45:01.332Z,3.18
2022-11-19T10:50:02.715Z,3.21
2022-11-19T10:55:01.300Z,3.41
2022-11-19T11:00:02.264Z,3.35
2022-11-19T11:05:02.206Z,3.24
2022-11-19T11:10:02.144Z,3.47
2022-11-19T11:15:02.166Z,3.31
2022-11-19T11:20:01.995Z,3.38
2022-11-19T11:25:06.988Z,3.62
2022-11-19T11:30:02.049Z,3.46
2022-11-19T11:35:06.901Z,3.31
2022-11-19T11:40:01.261Z,3.45
2022-11-19T11:45:01.790Z,3.31
2022-11-19T11:50:01.852Z,3.49
2022-11-19T11:55:01.886Z,3.33
2022-11-19T12:00:01.863Z,3.32
2022-11-19T12:05:01.887Z,3.34
2022-11-19T12:10:02.066Z,3.39
2022-11-19T12:15:01.959Z,3.63
2022-11-19T12:20:01.871Z,3.41
2022-11-19T12:25:01.933Z,3.41
2022-11-19T12:30:01.582Z,3.35
2022-11-19T12:35:01.656Z,3.36
2022-11-19T12:40:02.165Z,3.29
2022-11-19T12:45:02.087Z,3.23
2022-11-19T12:50:01.859Z,3.21
2022-11-19T12:55:01.838Z,3.29
2022-11-19T13:00:01.938Z,3.43
2022-11-19T13:05:01.929Z,3.2
2022-11-19T13:10:02.205Z,3.27
2022-11-19T13:15:01.306Z,3.32
2022-11-19T13:20:03.485Z,3.36
2022-11-19T13:25:01.871Z,3.5
2022-11-19T13:30:01.331Z,3.29
2022-11-19T13:35:01.778Z,3.27
2022-11-19T13:40:02.149Z,3.54
2022-11-19T13:45:02.212Z,3.26
2022-11-19T13:50:02.128Z,3.35
2022-11-19T13:55:02.160Z,3.24
2022-11-19T14:00:02.171Z,3.28
2022-11-19T14:05:01.383Z,3.32
2022-11-19T14:15:02.083Z,3.29
2022-11-19T14:20:01.631Z,3.2
2022-11-19T14:25:01.598Z,3.21
2022-11-19T14:30:01.516Z,3.44
2022-11-19T14:35:01.964Z,3.17
2022-11-19T14:40:07.272Z,3.14
2022-11-19T14:45:01.388Z,3.11
2022-11-19T14:50:02.038Z,3.1
2022-11-19T14:55:02.388Z,3.06
2022-11-19T15:00:01.192Z,3.05
2022-11-19T15:05:01.755Z,3.04
2022-11-19T15:10:01.507Z,3.05
2022-11-19T15:15:01.656Z,3.14
2022-11-19T15:20:01.259Z,3.04
2022-11-19T15:25:01.608Z,3.04
2022-11-19T15:30:02.073Z,3.08
2022-11-19T15:35:10.871Z,3.11
2022-11-19T15:40:01.953Z,3.11
2022-11-19T15:45:01.348Z,3.29
2022-11-19T15:50:02.226Z,3.21
2022-11-19T15:55:02.127Z,2.99
2022-11-19T16:00:02.279Z,2.99
2022-11-19T16:05:01.870Z,3.03
2022-11-19T16:10:02.293Z,3.26
2022-11-19T16:15:01.431Z,3.26
2022-11-19T16:20:01.833Z,3.03
2022-11-19T16:25:01.702Z,2.85
2022-11-19T16:30:01.840Z,2.8
2022-11-19T16:35:01.270Z,2.83
2022-11-19T16:40:02.013Z,2.83
2022-11-19T16:45:01.344Z,2.97
2022-11-19T16:50:01.640Z,2.81
2022-11-19T16:55:01.246Z,2.76
2022-11-19T17:00:01.318Z,2.73
2022-11-19T17:05:01.731Z,2.78
2022-11-19T17:10:01.352Z,2.83
2022-11-19T17:15:01.414Z,2.74
2022-11-19T17:20:02.247Z,2.74
2022-11-19T17:25:01.899Z,2.96
2022-11-19T17:30:01.352Z,2.83
2022-11-19T17:35:01.932Z,2.84
2022-11-19T17:40:02.107Z,2.76
2022-11-19T17:45:06.052Z,2.93
2022-11-19T17:50:01.768Z,2.76
2022-11-19T17:55:01.715Z,2.68
2022-11-19T18:00:01.726Z,2.69
2022-11-19T18:05:01.869Z,2.89
2022-11-19T18:10:01.648Z,2.67
2022-11-19T18:15:02.355Z,2.64
2022-11-19T18:20:01.845Z,2.65
2022-11-19T18:25:02.001Z,2.74
2022-11-19T18:30:01.938Z,2.74
2022-11-19T18:35:02.044Z,2.66
2022-11-19T18:40:01.453Z,2.59
2022-11-19T18:45:01.692Z,2.52
2022-11-19T18:50:02.009Z,2.52
2022-11-19T18:55:01.528Z,2.62
2022-11-19T19:00:01.754Z,2.51
2022-11-19T19:05:02.259Z,2.54
2022-11-19T19:10:01.631Z,2.66
2022-11-19T19:15:01.710Z,2.49
2022-11-19T19:20:02.102Z,2.51
2022-11-19T19:25:02.112Z,2.61
2022-11-19T19:30:02.016Z,2.54
2022-11-19T19:35:01.845Z,2.51
2022-11-19T19:40:01.969Z,2.55
2022-11-19T19:45:02.181Z,2.5
2022-11-19T19:50:01.504Z,2.73
2022-11-19T19:55:01.523Z,2.47
2022-11-19T20:00:02.105Z,2.36
2022-11-19T20:05:02.232Z,2.43
2022-11-19T20:10:01.490Z,2.44
2022-11-19T20:15:01.515Z,2.41
2022-11-19T20:20:02.053Z,2.49
2022-11-19T20:25:01.369Z,2.4
2022-11-19T20:30:01.533Z,2.49
2022-11-19T20:35:01.664Z,2.36
2022-11-19T20:40:01.889Z,2.31
2022-11-19T20:45:01.797Z,2.31
2022-11-19T20:50:02.212Z,2.24
2022-11-19T20:55:06.452Z,2.42
2022-11-19T21:00:01.664Z,2.29
2022-11-19T21:05:02.072Z,2.26
2022-11-19T21:10:07.470Z,2.19
2022-11-19T21:15:01.375Z,2.16
2022-11-19T21:20:01.813Z,2.15
2022-11-19T21:25:02.068Z,2.13
2022-11-19T21:30:01.409Z,2.11
2022-11-19T21:35:01.978Z,2.08
2022-11-19T21:40:01.743Z,2.26
2022-11-19T21:45:01.924Z,2.19
2022-11-19T21:50:01.883Z,2.08
2022-11-19T21:55:01.837Z,2.07
2022-11-19T22:00:01.846Z,2.06
2022-11-19T22:05:02.336Z,2.06
2022-11-19T22:10:02.226Z,2.24
2022-11-19T22:15:02.265Z,2.12
2022-11-19T22:20:02.219Z,2.03
2022-11-19T22:25:02.129Z,2.06
2022-11-19T22:30:05.620Z,2
2022-11-19T22:35:01.826Z,1.98
2022-11-19T22:40:01.713Z,1.93
2022-11-19T22:45:01.539Z,1.93
2022-11-19T22:50:01.249Z,1.96
2022-11-19T22:55:01.287Z,2.11
2022-11-19T23:00:01.422Z,2.03
2022-11-19T23:05:01.769Z,1.91
2022-11-19T23:10:01.818Z,1.87
2022-11-19T23:15:01.619Z,2.15
2022-11-19T23:20:04.785Z,1.98
2022-11-19T23:25:01.684Z,2.16
2022-11-19T23:30:01.680Z,2.06
2022-11-19T23:35:01.311Z,1.99
2022-11-19T23:40:02.195Z,2.21
2022-11-19T23:45:02.191Z,1.93
2022-11-19T23:50:02.040Z,2.16
2022-11-19T23:55:01.857Z,1.97
